sensor_id;sensor_type;location;lat;lon;timestamp;P1;durP1;ratioP1;P2;durP2;ratioP2
28309;SDS011;15571;50.974;13.936;2022-07-23T00:00:10;5.03;;;4.50;;
28309;SDS011;15571;50.974;13.936;2022-07-23T00:03:15;5.93;;;4.70;;
28309;SDS011;15571;50.974;13.936;2022-07-23T00:06:18;4.50;;;4.07;;
28309;SDS011;15571;50.974;13.936;2022-07-23T00:09:29;6.07;;;4.72;;
28309;SDS011;15571;50.974;13.936;2022-07-23T00:12:35;5.97;;;4.82;;
28309;SDS011;15571;50.974;13.936;2022-07-23T00:15:38;5.85;;;4.97;;
28309;SDS011;15571;50.974;13.936;2022-07-23T00:18:43;5.50;;;4.13;;
28309;SDS011;15571;50.974;13.936;2022-07-23T00:21:46;5.43;;;4.57;;
28309;SDS011;15571;50.974;13.936;2022-07-23T00:24:49;7.43;;;4.00;;
28309;SDS011;15571;50.974;13.936;2022-07-23T00:27:53;5.90;;;4.45;;
28309;SDS011;15571;50.974;13.936;2022-07-23T00:31:04;5.05;;;4.47;;
28309;SDS011;15571;50.974;13.936;2022-07-23T00:34:08;4.43;;;4.03;;
28309;SDS011;15571;50.974;13.936;2022-07-23T00:37:14;5.32;;;4.15;;
28309;SDS011;15571;50.974;13.936;2022-07-23T00:40:25;5.40;;;4.63;;
28309;SDS011;15571;50.974;13.936;2022-07-23T00:43:33;6.22;;;4.85;;
28309;SDS011;15571;50.974;13.936;2022-07-23T00:46:36;5.72;;;4.00;;
28309;SDS011;15571;50.974;13.936;2022-07-23T00:49:41;7.00;;;4.65;;
28309;SDS011;15571;50.974;13.936;2022-07-23T00:52:48;7.30;;;4.93;;
28309;SDS011;15571;50.974;13.936;2022-07-23T00:55:56;5.05;;;4.45;;
28309;SDS011;15571;50.974;13.936;2022-07-23T00:59:02;5.22;;;4.72;;
28309;SDS011;15571;50.974;13.936;2022-07-23T01:02:04;4.95;;;4.22;;
28309;SDS011;15571;50.974;13.936;2022-07-23T01:05:14;6.28;;;4.50;;
28309;SDS011;15571;50.974;13.936;2022-07-23T01:08:22;7.07;;;5.22;;
28309;SDS011;15571;50.974;13.936;2022-07-23T01:11:29;11.05;;;4.85;;
28309;SDS011;15571;50.974;13.936;2022-07-23T01:14:41;5.88;;;4.30;;
28309;SDS011;15571;50.974;13.936;2022-07-23T01:17:44;10.65;;;4.57;;
28309;SDS011;15571;50.974;13.936;2022-07-23T01:20:49;8.68;;;5.25;;
28309;SDS011;15571;50.974;13.936;2022-07-23T01:23:53;5.30;;;4.80;;
28309;SDS011;15571;50.974;13.936;2022-07-23T01:26:58;5.20;;;4.80;;
28309;SDS011;15571;50.974;13.936;2022-07-23T01:30:02;8.52;;;5.10;;
28309;SDS011;15571;50.974;13.936;2022-07-23T01:33:07;5.45;;;4.95;;
28309;SDS011;15571;50.974;13.936;2022-07-23T01:36:11;6.10;;;4.35;;
28309;SDS011;15571;50.974;13.936;2022-07-23T01:39:18;7.55;;;4.43;;
28309;SDS011;15571;50.974;13.936;2022-07-23T01:42:30;6.18;;;4.15;;
28309;SDS011;15571;50.974;13.936;2022-07-23T01:45:43;6.55;;;4.57;;
28309;SDS011;15571;50.974;13.936;2022-07-23T01:48:53;5.25;;;4.53;;
28309;SDS011;15571;50.974;13.936;2022-07-23T01:52:13;4.25;;;3.92;;
28309;SDS011;15571;50.974;13.936;2022-07-23T01:55:24;5.47;;;4.70;;
28309;SDS011;15571;50.974;13.936;2022-07-23T01:58:31;6.07;;;4.28;;
28309;SDS011;15571;50.974;13.936;2022-07-23T02:01:34;6.03;;;4.32;;
28309;SDS011;15571;50.974;13.936;2022-07-23T02:04:42;4.90;;;4.43;;
28309;SDS011;15571;50.974;13.936;2022-07-23T02:08:12;5.53;;;4.50;;
28309;SDS011;15571;50.974;13.936;2022-07-23T02:11:30;5.63;;;4.95;;
28309;SDS011;15571;50.974;13.936;2022-07-23T02:14:36;8.57;;;5.13;;
28309;SDS011;15571;50.974;13.936;2022-07-23T02:17:43;6.82;;;5.57;;
28309;SDS011;15571;50.974;13.936;2022-07-23T02:20:49;6.53;;;5.07;;
28309;SDS011;15571;50.974;13.936;2022-07-23T02:23:53;7.07;;;5.20;;
28309;SDS011;15571;50.974;13.936;2022-07-23T02:27:04;7.72;;;5.10;;
28309;SDS011;15571;50.974;13.936;2022-07-23T02:30:09;5.70;;;4.68;;
28309;SDS011;15571;50.974;13.936;2022-07-23T02:33:13;6.18;;;5.50;;
28309;SDS011;15571;50.974;13.936;2022-07-23T02:36:17;7.05;;;5.47;;
28309;SDS011;15571;50.974;13.936;2022-07-23T02:39:25;6.35;;;5.53;;
28309;SDS011;15571;50.974;13.936;2022-07-23T02:42:44;5.90;;;5.13;;
28309;SDS011;15571;50.974;13.936;2022-07-23T02:45:48;6.00;;;5.28;;
28309;SDS011;15571;50.974;13.936;2022-07-23T02:48:53;6.20;;;5.60;;
28309;SDS011;15571;50.974;13.936;2022-07-23T02:52:00;9.05;;;5.30;;
28309;SDS011;15571;50.974;13.936;2022-07-23T02:55:06;6.07;;;5.20;;
28309;SDS011;15571;50.974;13.936;2022-07-23T02:58:14;7.00;;;4.68;;
28309;SDS011;15571;50.974;13.936;2022-07-23T03:01:18;5.38;;;4.88;;
28309;SDS011;15571;50.974;13.936;2022-07-23T03:04:22;7.22;;;5.00;;
28309;SDS011;15571;50.974;13.936;2022-07-23T03:07:29;5.78;;;5.20;;
28309;SDS011;15571;50.974;13.936;2022-07-23T03:10:33;8.32;;;4.93;;
28309;SDS011;15571;50.974;13.936;2022-07-23T03:13:39;8.32;;;5.47;;
28309;SDS011;15571;50.974;13.936;2022-07-23T03:16:48;5.68;;;4.82;;
28309;SDS011;15571;50.974;13.936;2022-07-23T03:19:51;5.80;;;4.95;;
28309;SDS011;15571;50.974;13.936;2022-07-23T03:22:54;6.35;;;5.18;;
28309;SDS011;15571;50.974;13.936;2022-07-23T03:26:02;5.38;;;4.88;;
28309;SDS011;15571;50.974;13.936;2022-07-23T03:29:07;6.50;;;5.40;;
28309;SDS011;15571;50.974;13.936;2022-07-23T03:32:11;7.47;;;5.10;;
28309;SDS011;15571;50.974;13.936;2022-07-23T03:35:18;6.13;;;5.53;;
28309;SDS011;15571;50.974;13.936;2022-07-23T03:38:47;6.55;;;5.47;;
28309;SDS011;15571;50.974;13.936;2022-07-23T03:41:57;7.28;;;5.70;;
28309;SDS011;15571;50.974;13.936;2022-07-23T03:45:02;6.30;;;5.25;;
28309;SDS011;15571;50.974;13.936;2022-07-23T03:48:18;6.45;;;5.22;;
28309;SDS011;15571;50.974;13.936;2022-07-23T03:51:22;6.68;;;5.97;;
28309;SDS011;15571;50.974;13.936;2022-07-23T03:54:26;5.63;;;5.13;;
28309;SDS011;15571;50.974;13.936;2022-07-23T03:57:31;5.82;;;5.25;;
28309;SDS011;15571;50.974;13.936;2022-07-23T04:00:42;6.20;;;5.60;;
28309;SDS011;15571;50.974;13.936;2022-07-23T04:03:48;7.35;;;5.30;;
28309;SDS011;15571;50.974;13.936;2022-07-23T04:07:01;7.90;;;6.00;;
28309;SDS011;15571;50.974;13.936;2022-07-23T04:10:07;6.22;;;5.53;;
28309;SDS011;15571;50.974;13.936;2022-07-23T04:13:11;5.80;;;5.28;;
28309;SDS011;15571;50.974;13.936;2022-07-23T04:19:37;7.25;;;5.60;;
28309;SDS011;15571;50.974;13.936;2022-07-23T04:22:43;6.07;;;5.38;;
28309;SDS011;15571;50.974;13.936;2022-07-23T04:25:47;9.02;;;5.93;;
28309;SDS011;15571;50.974;13.936;2022-07-23T04:28:51;6.00;;;5.40;;
28309;SDS011;15571;50.974;13.936;2022-07-23T04:38:40;6.07;;;5.47;;
28309;SDS011;15571;50.974;13.936;2022-07-23T04:41:44;5.80;;;5.25;;
28309;SDS011;15571;50.974;13.936;2022-07-23T04:44:50;7.43;;;6.18;;
28309;SDS011;15571;50.974;13.936;2022-07-23T04:47:53;8.40;;;5.95;;
28309;SDS011;15571;50.974;13.936;2022-07-23T04:50:59;6.82;;;6.05;;
28309;SDS011;15571;50.974;13.936;2022-07-23T04:54:04;8.80;;;5.40;;
28309;SDS011;15571;50.974;13.936;2022-07-23T04:57:07;6.75;;;5.80;;
28309;SDS011;15571;50.974;13.936;2022-07-23T05:03:48;6.25;;;5.65;;
28309;SDS011;15571;50.974;13.936;2022-07-23T05:07:03;5.70;;;5.10;;
28309;SDS011;15571;50.974;13.936;2022-07-23T05:10:12;6.10;;;5.50;;
28309;SDS011;15571;50.974;13.936;2022-07-23T05:13:17;7.07;;;6.25;;
28309;SDS011;15571;50.974;13.936;2022-07-23T05:16:20;6.40;;;5.80;;
28309;SDS011;15571;50.974;13.936;2022-07-23T05:19:30;6.82;;;6.03;;
28309;SDS011;15571;50.974;13.936;2022-07-23T05:22:35;5.78;;;5.20;;
28309;SDS011;15571;50.974;13.936;2022-07-23T05:25:39;5.93;;;5.43;;
28309;SDS011;15571;50.974;13.936;2022-07-23T05:28:46;6.05;;;5.43;;
28309;SDS011;15571;50.974;13.936;2022-07-23T05:31:49;6.35;;;5.65;;
28309;SDS011;15571;50.974;13.936;2022-07-23T05:35:00;6.72;;;6.03;;
28309;SDS011;15571;50.974;13.936;2022-07-23T05:38:07;7.65;;;6.35;;
28309;SDS011;15571;50.974;13.936;2022-07-23T05:41:10;6.20;;;5.60;;
28309;SDS011;15571;50.974;13.936;2022-07-23T05:44:16;9.50;;;6.22;;
28309;SDS011;15571;50.974;13.936;2022-07-23T05:47:19;7.50;;;5.97;;
28309;SDS011;15571;50.974;13.936;2022-07-23T05:50:22;6.68;;;5.90;;
28309;SDS011;15571;50.974;13.936;2022-07-23T05:53:39;6.97;;;5.95;;
28309;SDS011;15571;50.974;13.936;2022-07-23T05:56:48;6.60;;;6.00;;
28309;SDS011;15571;50.974;13.936;2022-07-23T05:59:51;6.70;;;6.10;;
28309;SDS011;15571;50.974;13.936;2022-07-23T06:03:00;7.28;;;6.55;;
28309;SDS011;15571;50.974;13.936;2022-07-23T06:06:07;6.78;;;6.18;;
28309;SDS011;15571;50.974;13.936;2022-07-23T06:09:12;6.13;;;5.53;;
28309;SDS011;15571;50.974;13.936;2022-07-23T06:12:19;7.35;;;5.60;;
28309;SDS011;15571;50.974;13.936;2022-07-23T06:15:21;7.28;;;6.63;;
28309;SDS011;15571;50.974;13.936;2022-07-23T06:18:25;6.53;;;5.93;;
28309;SDS011;15571;50.974;13.936;2022-07-23T06:21:29;8.70;;;5.82;;
28309;SDS011;15571;50.974;13.936;2022-07-23T06:24:36;7.50;;;5.45;;
28309;SDS011;15571;50.974;13.936;2022-07-23T06:27:45;8.82;;;6.50;;
28309;SDS011;15571;50.974;13.936;2022-07-23T06:30:51;6.65;;;5.63;;
28309;SDS011;15571;50.974;13.936;2022-07-23T06:33:58;5.82;;;5.22;;
28309;SDS011;15571;50.974;13.936;2022-07-23T06:37:01;8.15;;;5.13;;
28309;SDS011;15571;50.974;13.936;2022-07-23T06:40:07;8.10;;;4.82;;
28309;SDS011;15571;50.974;13.936;2022-07-23T06:43:11;5.90;;;5.15;;
28309;SDS011;15571;50.974;13.936;2022-07-23T06:46:19;6.53;;;5.68;;
28309;SDS011;15571;50.974;13.936;2022-07-23T06:49:25;5.93;;;5.25;;
28309;SDS011;15571;50.974;13.936;2022-07-23T06:52:35;7.35;;;5.75;;
28309;SDS011;15571;50.974;13.936;2022-07-23T06:55:41;6.07;;;5.25;;
28309;SDS011;15571;50.974;13.936;2022-07-23T06:58:48;7.10;;;5.50;;
28309;SDS011;15571;50.974;13.936;2022-07-23T07:01:55;8.10;;;6.30;;
28309;SDS011;15571;50.974;13.936;2022-07-23T07:04:58;7.53;;;5.53;;
28309;SDS011;15571;50.974;13.936;2022-07-23T07:08:07;7.85;;;6.40;;
28309;SDS011;15571;50.974;13.936;2022-07-23T07:11:11;8.07;;;6.75;;
28309;SDS011;15571;50.974;13.936;2022-07-23T07:14:22;8.35;;;6.55;;
28309;SDS011;15571;50.974;13.936;2022-07-23T07:17:34;9.50;;;7.13;;
28309;SDS011;15571;50.974;13.936;2022-07-23T07:20:40;7.38;;;6.45;;
28309;SDS011;15571;50.974;13.936;2022-07-23T07:23:45;7.93;;;7.15;;
28309;SDS011;15571;50.974;13.936;2022-07-23T07:26:50;10.88;;;7.47;;
28309;SDS011;15571;50.974;13.936;2022-07-23T07:29:57;8.73;;;6.95;;
28309;SDS011;15571;50.974;13.936;2022-07-23T07:33:00;8.25;;;7.25;;
28309;SDS011;15571;50.974;13.936;2022-07-23T07:36:03;7.30;;;6.40;;
28309;SDS011;15571;50.974;13.936;2022-07-23T07:39:07;6.47;;;5.50;;
28309;SDS011;15571;50.974;13.936;2022-07-23T07:42:13;7.03;;;6.15;;
28309;SDS011;15571;50.974;13.936;2022-07-23T07:45:17;8.38;;;6.78;;
28309;SDS011;15571;50.974;13.936;2022-07-23T07:48:24;8.90;;;7.47;;
28309;SDS011;15571;50.974;13.936;2022-07-23T07:54:42;10.18;;;7.32;;
28309;SDS011;15571;50.974;13.936;2022-07-23T07:57:47;7.85;;;6.95;;
28309;SDS011;15571;50.974;13.936;2022-07-23T08:01:01;8.13;;;6.97;;
28309;SDS011;15571;50.974;13.936;2022-07-23T08:04:04;9.75;;;8.20;;
28309;SDS011;15571;50.974;13.936;2022-07-23T08:07:07;8.93;;;7.85;;
28309;SDS011;15571;50.974;13.936;2022-07-23T08:10:19;8.57;;;7.78;;
28309;SDS011;15571;50.974;13.936;2022-07-23T08:13:30;8.63;;;7.72;;
28309;SDS011;15571;50.974;13.936;2022-07-23T08:16:33;8.27;;;7.40;;
28309;SDS011;15571;50.974;13.936;2022-07-23T08:19:36;8.10;;;7.30;;
28309;SDS011;15571;50.974;13.936;2022-07-23T08:22:43;8.68;;;7.85;;
28309;SDS011;15571;50.974;13.936;2022-07-23T08:25:53;8.98;;;8.13;;
28309;SDS011;15571;50.974;13.936;2022-07-23T08:28:59;8.98;;;7.80;;
28309;SDS011;15571;50.974;13.936;2022-07-23T08:32:02;8.90;;;8.02;;
28309;SDS011;15571;50.974;13.936;2022-07-23T08:35:05;8.18;;;7.05;;
28309;SDS011;15571;50.974;13.936;2022-07-23T08:38:10;8.52;;;7.72;;
28309;SDS011;15571;50.974;13.936;2022-07-23T08:41:17;9.60;;;8.13;;
28309;SDS011;15571;50.974;13.936;2022-07-23T08:44:22;8.15;;;7.35;;
28309;SDS011;15571;50.974;13.936;2022-07-23T08:47:26;8.30;;;7.55;;
28309;SDS011;15571;50.974;13.936;2022-07-23T08:50:30;9.02;;;8.13;;
28309;SDS011;15571;50.974;13.936;2022-07-23T08:53:36;7.05;;;6.35;;
28309;SDS011;15571;50.974;13.936;2022-07-23T08:56:41;7.75;;;6.82;;
28309;SDS011;15571;50.974;13.936;2022-07-23T08:59:46;7.53;;;6.35;;
28309;SDS011;15571;50.974;13.936;2022-07-23T09:02:49;9.43;;;6.97;;
28309;SDS011;15571;50.974;13.936;2022-07-23T09:05:58;10.65;;;7.18;;
28309;SDS011;15571;50.974;13.936;2022-07-23T09:09:16;7.07;;;6.47;;
28309;SDS011;15571;50.974;13.936;2022-07-23T09:12:19;9.48;;;6.13;;
28309;SDS011;15571;50.974;13.936;2022-07-23T09:15:24;8.05;;;7.25;;
28309;SDS011;15571;50.974;13.936;2022-07-23T09:18:32;7.70;;;6.95;;
28309;SDS011;15571;50.974;13.936;2022-07-23T09:21:39;7.15;;;6.45;;
28309;SDS011;15571;50.974;13.936;2022-07-23T09:28:06;8.00;;;7.20;;
28309;SDS011;15571;50.974;13.936;2022-07-23T09:31:16;7.40;;;6.68;;
28309;SDS011;15571;50.974;13.936;2022-07-23T09:34:21;6.70;;;6.10;;
28309;SDS011;15571;50.974;13.936;2022-07-23T09:37:27;7.05;;;6.18;;
28309;SDS011;15571;50.974;13.936;2022-07-23T09:40:35;7.32;;;6.30;;
28309;SDS011;15571;50.974;13.936;2022-07-23T09:43:42;9.07;;;5.97;;
28309;SDS011;15571;50.974;13.936;2022-07-23T09:46:49;7.72;;;6.43;;
28309;SDS011;15571;50.974;13.936;2022-07-23T09:50:00;6.75;;;6.03;;
28309;SDS011;15571;50.974;13.936;2022-07-23T09:53:07;7.10;;;5.95;;
28309;SDS011;15571;50.974;13.936;2022-07-23T09:56:11;7.40;;;6.68;;
28309;SDS011;15571;50.974;13.936;2022-07-23T09:59:17;8.00;;;5.93;;
28309;SDS011;15571;50.974;13.936;2022-07-23T10:02:27;6.82;;;6.22;;
28309;SDS011;15571;50.974;13.936;2022-07-23T10:06:00;6.90;;;5.68;;
28309;SDS011;15571;50.974;13.936;2022-07-23T10:09:34;6.68;;;5.90;;
28309;SDS011;15571;50.974;13.936;2022-07-23T10:13:03;6.60;;;6.00;;
28309;SDS011;15571;50.974;13.936;2022-07-23T10:16:26;9.40;;;6.63;;
28309;SDS011;15571;50.974;13.936;2022-07-23T10:19:37;6.90;;;6.20;;
28309;SDS011;15571;50.974;13.936;2022-07-23T10:22:42;7.78;;;6.18;;
28309;SDS011;15571;50.974;13.936;2022-07-23T10:25:55;7.82;;;6.53;;
28309;SDS011;15571;50.974;13.936;2022-07-23T10:29:09;7.00;;;6.30;;
28309;SDS011;15571;50.974;13.936;2022-07-23T10:32:43;7.97;;;5.78;;
28309;SDS011;15571;50.974;13.936;2022-07-23T10:35:55;7.20;;;6.53;;
28309;SDS011;15571;50.974;13.936;2022-07-23T10:39:07;6.80;;;6.07;;
28309;SDS011;15571;50.974;13.936;2022-07-23T10:42:19;6.75;;;6.15;;
28309;SDS011;15571;50.974;13.936;2022-07-23T10:45:30;6.80;;;6.10;;
28309;SDS011;15571;50.974;13.936;2022-07-23T10:48:35;7.15;;;6.45;;
28309;SDS011;15571;50.974;13.936;2022-07-23T10:51:41;7.95;;;6.80;;
28309;SDS011;15571;50.974;13.936;2022-07-23T10:58:48;10.43;;;6.60;;
28309;SDS011;15571;50.974;13.936;2022-07-23T11:01:54;9.80;;;6.28;;
28309;SDS011;15571;50.974;13.936;2022-07-23T11:05:24;8.48;;;6.78;;
28309;SDS011;15571;50.974;13.936;2022-07-23T11:08:29;8.70;;;6.97;;
28309;SDS011;15571;50.974;13.936;2022-07-23T11:11:36;10.30;;;7.60;;
28309;SDS011;15571;50.974;13.936;2022-07-23T11:15:00;7.53;;;6.80;;
28309;SDS011;15571;50.974;13.936;2022-07-23T11:18:13;8.57;;;7.30;;
28309;SDS011;15571;50.974;13.936;2022-07-23T11:24:51;11.13;;;7.28;;
28309;SDS011;15571;50.974;13.936;2022-07-23T11:27:55;7.20;;;6.50;;
28309;SDS011;15571;50.974;13.936;2022-07-23T11:31:16;9.45;;;6.45;;
28309;SDS011;15571;50.974;13.936;2022-07-23T11:34:34;8.63;;;6.90;;
28309;SDS011;15571;50.974;13.936;2022-07-23T11:38:03;8.02;;;7.05;;
28309;SDS011;15571;50.974;13.936;2022-07-23T11:41:10;7.47;;;6.63;;
28309;SDS011;15571;50.974;13.936;2022-07-23T11:44:24;7.97;;;7.20;;
28309;SDS011;15571;50.974;13.936;2022-07-23T11:47:28;7.43;;;6.60;;
28309;SDS011;15571;50.974;13.936;2022-07-23T11:50:35;8.82;;;7.03;;
28309;SDS011;15571;50.974;13.936;2022-07-23T11:53:40;10.30;;;6.07;;
28309;SDS011;15571;50.974;13.936;2022-07-23T11:56:56;8.63;;;7.07;;
28309;SDS011;15571;50.974;13.936;2022-07-23T12:00:02;7.32;;;6.35;;
28309;SDS011;15571;50.974;13.936;2022-07-23T12:03:13;7.07;;;5.63;;
28309;SDS011;15571;50.974;13.936;2022-07-23T12:06:17;7.07;;;6.35;;
28309;SDS011;15571;50.974;13.936;2022-07-23T12:09:22;9.77;;;6.32;;
28309;SDS011;15571;50.974;13.936;2022-07-23T12:12:27;9.65;;;6.07;;
28309;SDS011;15571;50.974;13.936;2022-07-23T12:15:41;7.55;;;5.40;;
28309;SDS011;15571;50.974;13.936;2022-07-23T12:18:49;6.22;;;5.50;;
28309;SDS011;15571;50.974;13.936;2022-07-23T12:21:54;8.55;;;6.03;;
28309;SDS011;15571;50.974;13.936;2022-07-23T12:24:57;7.28;;;5.88;;
28309;SDS011;15571;50.974;13.936;2022-07-23T12:28:05;7.00;;;5.60;;
28309;SDS011;15571;50.974;13.936;2022-07-23T12:31:10;6.82;;;5.35;;
28309;SDS011;15571;50.974;13.936;2022-07-23T12:34:17;6.97;;;5.30;;
28309;SDS011;15571;50.974;13.936;2022-07-23T12:37:26;8.00;;;6.22;;
28309;SDS011;15571;50.974;13.936;2022-07-23T12:40:42;7.45;;;5.65;;
28309;SDS011;15571;50.974;13.936;2022-07-23T12:43:48;7.82;;;6.30;;
28309;SDS011;15571;50.974;13.936;2022-07-23T12:46:53;7.35;;;5.90;;
28309;SDS011;15571;50.974;13.936;2022-07-23T12:49:57;6.28;;;5.70;;
28309;SDS011;15571;50.974;13.936;2022-07-23T12:53:05;8.15;;;6.65;;
28309;SDS011;15571;50.974;13.936;2022-07-23T12:56:11;8.45;;;5.93;;
28309;SDS011;15571;50.974;13.936;2022-07-23T12:59:17;8.30;;;7.50;;
28309;SDS011;15571;50.974;13.936;2022-07-23T13:02:23;7.90;;;7.15;;
28309;SDS011;15571;50.974;13.936;2022-07-23T13:05:27;9.68;;;7.65;;
28309;SDS011;15571;50.974;13.936;2022-07-23T13:08:31;8.02;;;6.85;;
28309;SDS011;15571;50.974;13.936;2022-07-23T13:11:36;7.75;;;6.95;;
28309;SDS011;15571;50.974;13.936;2022-07-23T13:14:41;8.45;;;7.55;;
28309;SDS011;15571;50.974;13.936;2022-07-23T13:17:44;8.95;;;7.63;;
28309;SDS011;15571;50.974;13.936;2022-07-23T13:20:49;8.80;;;7.72;;
28309;SDS011;15571;50.974;13.936;2022-07-23T13:23:52;7.47;;;6.78;;
28309;SDS011;15571;50.974;13.936;2022-07-23T13:26:59;10.52;;;7.07;;
28309;SDS011;15571;50.974;13.936;2022-07-23T13:30:07;7.10;;;6.50;;
28309;SDS011;15571;50.974;13.936;2022-07-23T13:33:11;8.13;;;7.05;;
28309;SDS011;15571;50.974;13.936;2022-07-23T13:36:15;9.07;;;6.97;;
28309;SDS011;15571;50.974;13.936;2022-07-23T13:39:21;8.00;;;6.90;;
28309;SDS011;15571;50.974;13.936;2022-07-23T13:42:25;9.50;;;7.45;;
28309;SDS011;15571;50.974;13.936;2022-07-23T13:45:30;8.23;;;6.78;;
28309;SDS011;15571;50.974;13.936;2022-07-23T13:48:33;7.47;;;6.70;;
28309;SDS011;15571;50.974;13.936;2022-07-23T13:51:37;7.55;;;6.75;;
28309;SDS011;15571;50.974;13.936;2022-07-23T13:54:44;12.65;;;6.97;;
28309;SDS011;15571;50.974;13.936;2022-07-23T13:57:47;10.77;;;7.45;;
28309;SDS011;15571;50.974;13.936;2022-07-23T14:00:53;8.48;;;6.88;;
28309;SDS011;15571;50.974;13.936;2022-07-23T14:03:57;7.07;;;6.47;;
28309;SDS011;15571;50.974;13.936;2022-07-23T14:07:03;7.80;;;7.00;;
28309;SDS011;15571;50.974;13.936;2022-07-23T14:10:07;8.27;;;7.50;;
28309;SDS011;15571;50.974;13.936;2022-07-23T14:13:13;8.23;;;6.68;;
28309;SDS011;15571;50.974;13.936;2022-07-23T14:16:18;7.30;;;6.40;;
28309;SDS011;15571;50.974;13.936;2022-07-23T14:19:21;8.82;;;6.97;;
28309;SDS011;15571;50.974;13.936;2022-07-23T14:22:25;10.27;;;7.00;;
28309;SDS011;15571;50.974;13.936;2022-07-23T14:25:30;7.35;;;6.43;;
28309;SDS011;15571;50.974;13.936;2022-07-23T14:28:36;9.25;;;6.93;;
28309;SDS011;15571;50.974;13.936;2022-07-23T14:31:45;7.82;;;6.60;;
28309;SDS011;15571;50.974;13.936;2022-07-23T14:34:52;7.75;;;6.95;;
28309;SDS011;15571;50.974;13.936;2022-07-23T14:37:56;7.80;;;6.88;;
28309;SDS011;15571;50.974;13.936;2022-07-23T14:40:59;7.53;;;6.82;;
28309;SDS011;15571;50.974;13.936;2022-07-23T14:44:03;10.30;;;7.05;;
28309;SDS011;15571;50.974;13.936;2022-07-23T14:47:08;7.78;;;7.05;;
28309;SDS011;15571;50.974;13.936;2022-07-23T14:50:13;8.45;;;7.55;;
28309;SDS011;15571;50.974;13.936;2022-07-23T14:53:17;9.15;;;7.30;;
28309;SDS011;15571;50.974;13.936;2022-07-23T14:56:23;8.10;;;7.38;;
28309;SDS011;15571;50.974;13.936;2022-07-23T14:59:34;8.18;;;7.45;;
28309;SDS011;15571;50.974;13.936;2022-07-23T15:02:39;8.98;;;7.95;;
28309;SDS011;15571;50.974;13.936;2022-07-23T15:05:43;8.05;;;7.28;;
28309;SDS011;15571;50.974;13.936;2022-07-23T15:08:47;9.50;;;8.05;;
28309;SDS011;15571;50.974;13.936;2022-07-23T15:11:51;8.43;;;7.60;;
28309;SDS011;15571;50.974;13.936;2022-07-23T15:14:57;9.73;;;7.68;;
28309;SDS011;15571;50.974;13.936;2022-07-23T15:18:03;8.00;;;7.20;;
28309;SDS011;15571;50.974;13.936;2022-07-23T15:21:06;8.63;;;7.07;;
28309;SDS011;15571;50.974;13.936;2022-07-23T15:24:10;7.65;;;6.85;;
28309;SDS011;15571;50.974;13.936;2022-07-23T15:27:15;8.35;;;7.55;;
28309;SDS011;15571;50.974;13.936;2022-07-23T15:30:23;7.90;;;7.10;;
28309;SDS011;15571;50.974;13.936;2022-07-23T15:33:29;8.90;;;7.10;;
28309;SDS011;15571;50.974;13.936;2022-07-23T15:36:33;8.02;;;7.07;;
28309;SDS011;15571;50.974;13.936;2022-07-23T15:39:37;7.78;;;7.00;;
28309;SDS011;15571;50.974;13.936;2022-07-23T15:42:41;7.40;;;6.78;;
28309;SDS011;15571;50.974;13.936;2022-07-23T15:45:47;7.80;;;7.00;;
28309;SDS011;15571;50.974;13.936;2022-07-23T15:48:57;8.50;;;7.20;;
28309;SDS011;15571;50.974;13.936;2022-07-23T15:52:03;7.75;;;6.95;;
28309;SDS011;15571;50.974;13.936;2022-07-23T15:55:10;7.95;;;7.25;;
28309;SDS011;15571;50.974;13.936;2022-07-23T15:58:14;9.70;;;7.57;;
28309;SDS011;15571;50.974;13.936;2022-07-23T16:01:17;8.95;;;8.07;;
28309;SDS011;15571;50.974;13.936;2022-07-23T16:04:23;8.18;;;7.38;;
28309;SDS011;15571;50.974;13.936;2022-07-23T16:07:27;8.85;;;7.07;;
28309;SDS011;15571;50.974;13.936;2022-07-23T16:10:31;8.82;;;7.57;;
28309;SDS011;15571;50.974;13.936;2022-07-23T16:13:34;10.25;;;7.85;;
28309;SDS011;15571;50.974;13.936;2022-07-23T16:16:38;8.13;;;7.40;;
28309;SDS011;15571;50.974;13.936;2022-07-23T16:19:44;8.73;;;7.82;;
28309;SDS011;15571;50.974;13.936;2022-07-23T16:22:50;9.10;;;7.72;;
28309;SDS011;15571;50.974;13.936;2022-07-23T16:25:53;9.68;;;7.85;;
28309;SDS011;15571;50.974;13.936;2022-07-23T16:28:58;8.55;;;7.72;;
28309;SDS011;15571;50.974;13.936;2022-07-23T16:32:02;9.05;;;7.55;;
28309;SDS011;15571;50.974;13.936;2022-07-23T16:35:10;9.55;;;8.35;;
28309;SDS011;15571;50.974;13.936;2022-07-23T16:38:14;10.38;;;8.18;;
28309;SDS011;15571;50.974;13.936;2022-07-23T16:41:18;9.18;;;8.38;;
28309;SDS011;15571;50.974;13.936;2022-07-23T16:44:21;10.85;;;8.93;;
28309;SDS011;15571;50.974;13.936;2022-07-23T16:47:27;9.13;;;7.85;;
28309;SDS011;15571;50.974;13.936;2022-07-23T16:50:33;8.95;;;8.13;;
28309;SDS011;15571;50.974;13.936;2022-07-23T16:53:37;9.48;;;8.52;;
28309;SDS011;15571;50.974;13.936;2022-07-23T16:56:41;10.35;;;9.35;;
28309;SDS011;15571;50.974;13.936;2022-07-23T16:59:52;11.70;;;8.55;;
28309;SDS011;15571;50.974;13.936;2022-07-23T17:02:57;10.20;;;9.20;;
28309;SDS011;15571;50.974;13.936;2022-07-23T17:06:06;11.88;;;9.88;;
28309;SDS011;15571;50.974;13.936;2022-07-23T17:09:10;13.68;;;10.48;;
28309;SDS011;15571;50.974;13.936;2022-07-23T17:12:15;11.57;;;10.10;;
28309;SDS011;15571;50.974;13.936;2022-07-23T17:15:18;11.68;;;10.43;;
28309;SDS011;15571;50.974;13.936;2022-07-23T17:18:22;12.13;;;9.93;;
28309;SDS011;15571;50.974;13.936;2022-07-23T17:21:29;11.48;;;10.23;;
28309;SDS011;15571;50.974;13.936;2022-07-23T17:24:33;39.72;;;30.38;;
28309;SDS011;15571;50.974;13.936;2022-07-23T17:27:39;22.20;;;17.27;;
28309;SDS011;15571;50.974;13.936;2022-07-23T17:30:43;14.02;;;10.75;;
28309;SDS011;15571;50.974;13.936;2022-07-23T17:33:46;11.25;;;9.88;;
28309;SDS011;15571;50.974;13.936;2022-07-23T17:36:51;17.05;;;13.07;;
28309;SDS011;15571;50.974;13.936;2022-07-23T17:39:56;11.65;;;10.45;;
28309;SDS011;15571;50.974;13.936;2022-07-23T17:43:04;10.88;;;9.63;;
28309;SDS011;15571;50.974;13.936;2022-07-23T17:46:10;14.15;;;10.48;;
28309;SDS011;15571;50.974;13.936;2022-07-23T17:49:14;13.02;;;11.05;;
28309;SDS011;15571;50.974;13.936;2022-07-23T17:52:21;13.48;;;10.55;;
28309;SDS011;15571;50.974;13.936;2022-07-23T17:55:25;11.30;;;9.88;;
28309;SDS011;15571;50.974;13.936;2022-07-23T17:58:30;12.57;;;10.68;;
28309;SDS011;15571;50.974;13.936;2022-07-23T18:01:34;12.93;;;11.00;;
28309;SDS011;15571;50.974;13.936;2022-07-23T18:04:38;11.30;;;10.10;;
28309;SDS011;15571;50.974;13.936;2022-07-23T18:07:46;13.25;;;10.13;;
28309;SDS011;15571;50.974;13.936;2022-07-23T18:10:50;12.40;;;9.95;;
28309;SDS011;15571;50.974;13.936;2022-07-23T18:13:54;12.43;;;10.80;;
28309;SDS011;15571;50.974;13.936;2022-07-23T18:16:58;12.45;;;10.45;;
28309;SDS011;15571;50.974;13.936;2022-07-23T18:20:06;11.52;;;9.63;;
28309;SDS011;15571;50.974;13.936;2022-07-23T18:23:15;12.00;;;9.32;;
28309;SDS011;15571;50.974;13.936;2022-07-23T18:26:19;10.80;;;9.73;;
28309;SDS011;15571;50.974;13.936;2022-07-23T18:29:23;10.45;;;9.38;;
28309;SDS011;15571;50.974;13.936;2022-07-23T18:32:26;18.80;;;14.57;;
28309;SDS011;15571;50.974;13.936;2022-07-23T18:35:29;12.98;;;10.77;;
28309;SDS011;15571;50.974;13.936;2022-07-23T18:38:34;12.65;;;9.15;;
28309;SDS011;15571;50.974;13.936;2022-07-23T18:41:40;10.15;;;9.02;;
28309;SDS011;15571;50.974;13.936;2022-07-23T18:44:47;9.15;;;8.20;;
28309;SDS011;15571;50.974;13.936;2022-07-23T18:47:51;11.65;;;8.70;;
28309;SDS011;15571;50.974;13.936;2022-07-23T18:50:55;9.77;;;8.77;;